Time;durP1;ratioP1;P1;durP2;ratioP2;P2;SDS_P1;SDS_P2;PMS_P1;PMS_P2;Temp;Humidity;BMP_temperature;BMP_pressure;BME280_temperature;BME280_humidity;BME280_pressure;Samples;Min_cycle;Max_cycle;Signal;HPM_P1;HPM_P2
2024/04/20 00:00:48;;;;;;;2.67;2.47;;;;;;;6.32;100.00;98431.13;6541650;21;20240;-81
2024/04/20 00:03:20;;;;;;;3.17;2.97;;;;;;;6.33;100.00;98428.25;6584969;21;20232;-81
2024/04/20 00:05:48;;;;;;;3.40;3.10;;;;;;;6.34;100.00;98427.22;6584227;21;20228;-81
2024/04/20 00:08:17;;;;;;;3.00;2.80;;;;;;;6.38;100.00;98430.25;6584271;21;20803;-81
2024/04/20 00:10:46;;;;;;;3.63;2.90;;;;;;;6.39;100.00;98427.34;6542422;21;20321;-85
2024/04/20 00:13:14;;;;;;;2.90;2.60;;;;;;;6.39;100.00;98426.56;6540975;21;20260;-81
2024/04/20 00:15:42;;;;;;;2.90;2.70;;;;;;;6.37;100.00;98436.59;6584892;21;20706;-82
2024/04/20 00:18:10;;;;;;;3.27;3.00;;;;;;;6.40;100.00;98433.47;6584562;21;20239;-81
2024/04/20 00:20:39;;;;;;;3.40;3.13;;;;;;;6.39;100.00;98437.19;6542012;21;20248;-82
2024/04/20 00:23:10;;;;;;;3.13;2.83;;;;;;;6.38;100.00;98439.03;6585863;21;20313;-82
2024/04/20 00:25:38;;;;;;;3.17;2.80;;;;;;;6.32;100.00;98433.78;6631006;21;20220;-81
2024/04/20 00:28:06;;;;;;;2.80;2.60;;;;;;;6.28;100.00;98430.75;6542460;21;20229;-82
2024/04/20 00:30:34;;;;;;;2.87;2.67;;;;;;;6.32;100.00;98439.91;6584349;21;20237;-81
2024/04/20 00:33:05;;;;;;;2.83;2.63;;;;;;;6.31;100.00;98432.16;6585908;21;20216;-81
2024/04/20 00:35:37;;;;;;;2.40;2.30;;;;;;;6.32;100.00;98426.63;6584772;21;20232;-81
2024/04/20 00:38:06;;;;;;;2.30;2.10;;;;;;;6.29;100.00;98419.09;6629183;21;20254;-82
2024/04/20 00:40:35;;;;;;;2.50;2.30;;;;;;;6.27;100.00;98418.50;6585132;21;20244;-82
2024/04/20 00:43:03;;;;;;;2.33;2.13;;;;;;;6.25;100.00;98422.41;6584573;21;20224;-81
2024/04/20 00:45:32;;;;;;;1.90;1.80;;;;;;;6.27;100.00;98420.34;6585399;21;20244;-81
2024/04/20 00:48:05;;;;;;;2.27;2.07;;;;;;;6.27;100.00;98425.66;6503960;21;20224;-83
2024/04/20 00:50:36;;;;;;;2.17;2.00;;;;;;;6.23;100.00;98419.16;6628017;21;20232;-81
2024/04/20 00:53:04;;;;;;;2.30;2.10;;;;;;;6.24;100.00;98429.56;6586096;21;20329;-81
2024/04/20 00:55:31;;;;;;;2.40;2.20;;;;;;;6.27;100.00;98431.78;6584745;21;20239;-81
2024/04/20 00:58:02;;;;;;;2.30;2.10;;;;;;;6.25;100.00;98441.84;6542031;21;20283;-81
2024/04/20 01:00:33;;;;;;;2.20;2.00;;;;;;;6.19;100.00;98432.09;6628508;21;20285;-82
2024/04/20 01:03:02;;;;;;;2.20;2.00;;;;;;;6.19;100.00;98434.75;6542390;21;20251;-82
2024/04/20 01:05:30;;;;;;;2.20;2.10;;;;;;;6.19;100.00;98432.91;6584651;21;20231;-81
2024/04/20 01:07:58;;;;;;;1.90;1.80;;;;;;;6.23;100.00;98429.78;6584577;21;20224;-81
2024/04/20 01:10:29;;;;;;;1.60;1.50;;;;;;;6.25;100.00;98433.06;6584541;21;20254;-81
2024/04/20 01:13:02;;;;;;;1.90;1.70;;;;;;;6.23;100.00;98427.94;6543767;21;20243;-81
2024/04/20 01:15:31;;;;;;;2.20;2.00;;;;;;;6.22;100.00;98426.31;6584126;21;20303;-81
2024/04/20 01:18:00;;;;;;;1.60;1.50;;;;;;;6.24;100.00;98418.13;6586654;21;20302;-81
2024/04/20 01:20:28;;;;;;;1.80;1.70;;;;;;;6.22;100.00;98417.50;6587214;21;20267;-82
2024/04/20 01:22:59;;;;;;;1.60;1.47;;;;;;;6.19;100.00;98421.44;6543807;21;20252;-81
2024/04/20 01:25:27;;;;;;;1.37;1.27;;;;;;;6.19;100.00;98416.94;6587129;21;20290;-81
2024/04/20 01:27:55;;;;;;;1.30;1.20;;;;;;;6.20;100.00;98421.22;6586710;21;20235;-80
2024/04/20 01:30:24;;;;;;;1.20;1.10;;;;;;;6.22;100.00;98417.50;6543930;21;20321;-80
2024/04/20 01:32:52;;;;;;;1.30;1.10;;;;;;;6.16;100.00;98413.88;6543040;21;20251;-81
2024/04/20 01:35:20;;;;;;;1.97;1.10;;;;;;;6.14;100.00;98415.97;6544152;21;20232;-81
2024/04/20 01:37:51;;;;;;;0.80;0.80;;;;;;;6.16;100.00;98421.88;6587359;21;20240;-80
2024/04/20 01:40:21;;;;;;;1.10;1.10;;;;;;;6.11;100.00;98417.22;6589354;21;20674;-81
2024/04/20 01:42:49;;;;;;;1.77;1.20;;;;;;;6.14;100.00;98410.66;6544191;21;20327;-80
2024/04/20 01:45:18;;;;;;;1.30;1.20;;;;;;;6.12;100.00;98415.38;6586541;21;20760;-81
2024/04/20 01:47:48;;;;;;;1.10;1.00;;;;;;;6.13;100.00;98417.00;6546280;21;20258;-81
2024/04/20 01:50:16;;;;;;;1.17;1.00;;;;;;;6.14;100.00;98419.44;6586717;21;20242;-80
2024/04/20 01:52:45;;;;;;;1.30;1.00;;;;;;;6.13;100.00;98417.00;6585734;21;20236;-81
2024/04/20 01:55:14;;;;;;;1.40;0.80;;;;;;;6.09;100.00;98421.94;6588730;21;20248;-81
2024/04/20 01:57:42;;;;;;;0.77;0.60;;;;;;;6.16;100.00;98427.19;6543384;21;20228;-81
2024/04/20 02:00:11;;;;;;;0.50;0.50;;;;;;;6.09;100.00;98423.78;6586670;21;20236;-81
2024/04/20 02:02:39;;;;;;;0.47;0.47;;;;;;;6.09;100.00;98429.94;6586981;21;20224;-81
2024/04/20 02:05:07;;;;;;;0.40;0.40;;;;;;;6.12;100.00;98423.34;6587586;21;20258;-80
2024/04/20 02:07:35;;;;;;;0.30;0.30;;;;;;;6.11;100.00;98435.81;6588037;21;20728;-82
2024/04/20 02:10:03;;;;;;;0.30;0.30;;;;;;;6.15;100.00;98430.91;6588007;21;20667;-82
2024/04/20 02:12:31;;;;;;;0.20;0.20;;;;;;;6.13;100.00;98428.44;6545006;21;20255;-81
2024/04/20 02:14:59;;;;;;;0.30;0.30;;;;;;;6.09;100.00;98415.81;6545464;21;20282;-81
2024/04/20 02:17:27;;;;;;;0.27;0.20;;;;;;;6.10;100.00;98426.25;6588592;21;20228;-82
2024/04/20 02:19:55;;;;;;;0.30;0.30;;;;;;;6.16;100.00;98428.00;6588361;21;20226;-82
2024/04/20 02:22:23;;;;;;;0.20;0.20;;;;;;;6.15;100.00;98430.91;6588387;21;20244;-81
2024/04/20 02:24:51;;;;;;;0.10;0.10;;;;;;;6.11;100.00;98432.38;6588031;21;20240;-81
2024/04/20 02:27:20;;;;;;;0.20;0.20;;;;;;;6.11;100.00;98433.16;6546110;21;20490;-81
2024/04/20 02:29:48;;;;;;;0.20;0.20;;;;;;;6.12;100.00;98428.66;6587126;21;20296;-81
2024/04/20 02:32:16;;;;;;;0.20;0.20;;;;;;;6.11;100.00;98440.34;6588870;21;20286;-80
2024/04/20 02:34:44;;;;;;;0.60;0.23;;;;;;;6.07;100.00;98434.63;6587321;21;20270;-82
2024/04/20 02:37:12;;;;;;;0.20;0.10;;;;;;;6.11;100.00;98440.34;6587769;21;20287;-81
2024/04/20 02:39:39;;;;;;;0.20;0.20;;;;;;;6.09;100.00;98424.63;6587731;21;20250;-82
2024/04/20 02:42:08;;;;;;;0.20;0.20;;;;;;;6.15;100.00;98436.22;6544115;21;20738;-84
2024/04/20 02:44:35;;;;;;;0.20;0.20;;;;;;;6.10;100.00;98425.44;6587402;21;20317;-82
2024/04/20 02:47:04;;;;;;;0.20;0.20;;;;;;;6.23;100.00;98424.47;6587353;21;20228;-81
2024/04/20 02:49:32;;;;;;;0.20;0.20;;;;;;;6.14;100.00;98430.09;6544299;21;20236;-80
2024/04/20 02:52:00;;;;;;;0.20;0.20;;;;;;;6.18;100.00;98425.94;6544643;21;20244;-82
2024/04/20 02:54:28;;;;;;;0.20;0.20;;;;;;;6.08;100.00;98420.31;6587977;21;20259;-81
2024/04/20 02:56:57;;;;;;;0.20;0.20;;;;;;;5.96;100.00;98427.41;6587283;21;20227;-83
2024/04/20 02:59:24;;;;;;;0.30;0.30;;;;;;;6.03;100.00;98424.66;6585905;21;20233;-80
2024/04/20 03:01:52;;;;;;;0.20;0.20;;;;;;;5.91;100.00;98424.59;6586862;21;20223;-80
2024/04/20 03:04:20;;;;;;;0.20;0.20;;;;;;;5.82;100.00;98428.53;6543207;21;20231;-80
2024/04/20 03:06:51;;;;;;;0.20;0.20;;;;;;;5.69;100.00;98426.78;6545670;21;20283;-81
2024/04/20 03:09:19;;;;;;;0.23;0.23;;;;;;;5.65;100.00;98422.09;6543639;21;20227;-81
2024/04/20 03:11:47;;;;;;;0.47;0.30;;;;;;;5.66;100.00;98435.19;6585927;21;20238;-82
2024/04/20 03:14:14;;;;;;;0.47;0.33;;;;;;;5.71;100.00;98426.56;6629677;21;20236;-80
2024/04/20 03:16:42;;;;;;;1.63;0.30;;;;;;;5.71;100.00;98437.19;6587280;21;20266;-81
2024/04/20 03:19:09;;;;;;;0.40;0.40;;;;;;;5.61;100.00;98442.19;6586740;21;20230;-81
2024/04/20 03:21:37;;;;;;;0.63;0.40;;;;;;;5.63;100.00;98440.13;6544079;21;20256;-81
2024/04/20 03:24:06;;;;;;;1.17;0.50;;;;;;;5.80;100.00;98443.03;6587412;21;20276;-80
2024/04/20 03:26:35;;;;;;;0.40;0.33;;;;;;;5.81;100.00;98436.72;6587016;21;20271;-80
2024/04/20 03:29:04;;;;;;;0.50;0.50;;;;;;;6.03;100.00;98437.97;6586850;21;20228;-80
2024/04/20 03:31:33;;;;;;;0.37;0.37;;;;;;;6.06;100.00;98449.00;6631054;21;20261;-81
2024/04/20 03:34:01;;;;;;;0.43;0.43;;;;;;;6.13;100.00;98457.69;6587210;21;20708;-81
2024/04/20 03:36:29;;;;;;;0.50;0.43;;;;;;;6.19;100.00;98445.38;6587674;21;20236;-80
2024/04/20 03:39:10;;;;;;;0.40;0.40;;;;;;;6.32;100.00;98463.84;6588265;21;20236;-83
2024/04/20 03:41:38;;;;;;;0.40;0.40;;;;;;;6.38;100.00;98462.16;6544362;21;20259;-82
2024/04/20 03:44:06;;;;;;;0.50;0.50;;;;;;;6.31;100.00;98470.22;6587372;21;20250;-83
2024/04/20 03:46:33;;;;;;;0.67;0.40;;;;;;;6.38;100.00;98472.81;6586624;21;20232;-81
2024/04/20 03:49:00;;;;;;;0.63;0.40;;;;;;;6.49;100.00;98472.06;6586913;21;20229;-81
2024/04/20 03:51:28;;;;;;;0.40;0.40;;;;;;;6.45;100.00;98479.69;6544163;21;20304;-80
2024/04/20 03:53:57;;;;;;;0.40;0.40;;;;;;;6.39;100.00;98474.44;6586666;21;20262;-81
2024/04/20 03:56:24;;;;;;;0.80;0.47;;;;;;;6.42;100.00;98485.44;6586168;21;20228;-80
2024/04/20 03:58:54;;;;;;;0.43;0.40;;;;;;;6.43;100.00;98484.44;6630739;21;20228;-79
2024/04/20 04:01:22;;;;;;;0.50;0.50;;;;;;;6.49;100.00;98491.50;6587019;21;20232;-81
2024/04/20 04:03:51;;;;;;;0.40;0.40;;;;;;;6.47;100.00;98496.25;6630930;21;20321;-80
2024/04/20 04:06:19;;;;;;;0.50;0.40;;;;;;;6.47;100.00;98501.56;6630886;21;20267;-81
2024/04/20 04:08:48;;;;;;;0.50;0.50;;;;;;;6.45;100.00;98495.66;6587804;21;20284;-82
2024/04/20 04:11:16;;;;;;;0.50;0.50;;;;;;;6.49;100.00;98499.50;6543838;21;20226;-82
2024/04/20 04:13:43;;;;;;;0.50;0.50;;;;;;;6.45;100.00;98495.66;6586989;21;20231;-80
2024/04/20 04:16:11;;;;;;;0.57;0.50;;;;;;;6.46;100.00;98509.75;6543551;21;20231;-85
2024/04/20 04:18:41;;;;;;;0.50;0.50;;;;;;;6.54;100.00;98522.78;6544873;21;20228;-82
2024/04/20 04:21:10;;;;;;;0.70;0.70;;;;;;;6.60;100.00;98537.88;6586430;21;20275;-81
2024/04/20 04:23:38;;;;;;;0.70;0.70;;;;;;;6.66;100.00;98557.47;6544899;21;20232;-81
2024/04/20 04:26:06;;;;;;;0.70;0.30;;;;;;;6.57;100.00;98559.59;6586821;21;20276;-82
2024/04/20 04:28:35;;;;;;;0.37;0.33;;;;;;;6.45;100.00;98569.31;6587602;21;20259;-81
2024/04/20 04:31:02;;;;;;;0.40;0.40;;;;;;;6.27;100.00;98569.28;6586890;21;20345;-82
2024/04/20 04:33:30;;;;;;;0.73;0.40;;;;;;;6.15;100.00;98563.88;6544358;21;20228;-81
2024/04/20 04:35:59;;;;;;;0.40;0.40;;;;;;;5.99;100.00;98577.69;6587652;21;20728;-80
2024/04/20 04:38:27;;;;;;;0.20;0.20;;;;;;;6.06;100.00;98584.59;6588298;21;20224;-81
2024/04/20 04:40:55;;;;;;;0.20;0.20;;;;;;;5.91;100.00;98580.63;6544849;21;20229;-81
2024/04/20 04:43:22;;;;;;;0.10;0.10;;;;;;;5.80;100.00;98589.22;6587506;21;20232;-82
2024/04/20 04:45:51;;;;;;;2.00;0.47;;;;;;;5.64;100.00;98599.38;6544469;21;20227;-82
2024/04/20 04:48:19;;;;;;;1.23;0.30;;;;;;;5.57;100.00;98595.91;6544031;21;20236;-80
2024/04/20 04:50:48;;;;;;;0.10;0.10;;;;;;;5.57;100.00;98598.56;6631813;21;20328;-81
2024/04/20 04:53:16;;;;;;;0.40;0.20;;;;;;;5.54;100.00;98590.22;6544224;21;20263;-80
2024/04/20 04:55:44;;;;;;;0.20;0.20;;;;;;;5.52;100.00;98586.94;6587440;21;20317;-80
2024/04/20 04:58:12;;;;;;;0.20;0.20;;;;;;;5.59;100.00;98580.59;6587108;21;20239;-82
2024/04/20 05:00:41;;;;;;;0.13;0.13;;;;;;;5.69;100.00;98572.94;6544869;21;20299;-82
2024/04/20 05:03:11;;;;;;;0.40;0.40;;;;;;;5.75;100.00;98577.41;6589113;21;20240;-83
2024/04/20 05:05:46;;;;;;;0.43;0.37;;;;;;;5.79;100.00;98577.78;6631310;21;20469;-81
2024/04/20 05:08:13;;;;;;;0.33;0.33;;;;;;;5.96;100.00;98584.25;6587213;21;20267;-80
2024/04/20 05:10:41;;;;;;;0.30;0.30;;;;;;;5.96;100.00;98592.25;6586914;21;20332;-82
2024/04/20 05:13:10;;;;;;;0.53;0.30;;;;;;;6.06;100.00;98586.44;6586191;21;20243;-81
2024/04/20 05:15:38;;;;;;;0.63;0.40;;;;;;;6.13;100.00;98595.19;6544447;21;20263;-81
2024/04/20 05:18:07;;;;;;;0.67;0.30;;;;;;;6.14;100.00;98592.31;6586830;21;20230;-84
2024/04/20 05:20:35;;;;;;;0.87;0.40;;;;;;;6.26;100.00;98588.94;6540983;21;20239;-80
2024/04/20 05:23:05;;;;;;;0.60;0.60;;;;;;;6.37;100.00;98590.91;6586437;21;20263;-82
2024/04/20 05:25:33;;;;;;;0.97;0.40;;;;;;;6.54;100.00;98579.47;6585050;21;20740;-82
2024/04/20 05:28:00;;;;;;;0.50;0.43;;;;;;;6.68;100.00;98576.69;6584271;21;20274;-83
2024/04/20 05:30:29;;;;;;;0.50;0.50;;;;;;;6.79;100.00;98576.78;6584524;21;20720;-82
2024/04/20 05:32:56;;;;;;;0.40;0.40;;;;;;;6.89;100.00;98578.94;6540850;21;20255;-81
2024/04/20 05:35:24;;;;;;;1.47;0.60;;;;;;;6.98;100.00;98577.59;6584129;21;20321;-82
2024/04/20 05:37:54;;;;;;;0.60;0.50;;;;;;;7.16;100.00;98580.25;6585872;21;20232;-81
2024/04/20 05:40:22;;;;;;;0.83;0.63;;;;;;;7.28;100.00;98583.00;6584847;21;20239;-81
2024/04/20 05:42:52;;;;;;;0.60;0.60;;;;;;;7.48;100.00;98599.53;6585723;21;20233;-81
2024/04/20 05:45:25;;;;;;;0.50;0.50;;;;;;;7.47;100.00;98593.41;6584485;21;20271;-81
2024/04/20 05:47:53;;;;;;;1.43;0.80;;;;;;;7.87;100.00;98590.22;6543510;21;20259;-82
2024/04/20 05:50:23;;;;;;;0.77;0.70;;;;;;;8.26;100.00;98596.78;6541760;21;20704;-83
2024/04/20 05:52:51;;;;;;;0.77;0.60;;;;;;;8.53;100.00;98602.56;6626685;21;20220;-82
2024/04/20 05:55:18;;;;;;;0.80;0.60;;;;;;;8.82;100.00;98589.06;6539526;21;20226;-81
2024/04/20 05:57:46;;;;;;;0.80;0.53;;;;;;;9.18;100.00;98589.84;6539238;21;20243;-80
2024/04/20 06:00:13;;;;;;;0.63;0.50;;;;;;;9.59;100.00;98594.97;6583246;21;20279;-84
2024/04/20 06:02:41;;;;;;;1.03;0.93;;;;;;;9.82;100.00;98588.72;6583702;21;20232;-81
2024/04/20 06:05:09;;;;;;;0.70;0.70;;;;;;;9.95;100.00;98585.72;6585122;21;20262;-81
2024/04/20 06:07:38;;;;;;;1.50;1.40;;;;;;;10.02;100.00;98590.94;6628694;21;20307;-80
2024/04/20 06:10:05;;;;;;;1.50;1.40;;;;;;;10.22;100.00;98591.31;6542086;21;20240;-81
2024/04/20 06:12:34;;;;;;;1.20;1.10;;;;;;;10.29;100.00;98604.53;6541809;21;20240;-81
2024/04/20 06:15:02;;;;;;;2.60;2.40;;;;;;;10.17;100.00;98595.78;6541328;21;20228;-82
2024/04/20 06:17:30;;;;;;;1.70;1.60;;;;;;;10.14;100.00;98597.03;6583930;21;20279;-82
2024/04/20 06:19:58;;;;;;;6.10;5.60;;;;;;;10.07;100.00;98597.19;6584289;21;20228;-82
2024/04/20 06:22:26;;;;;;;2.30;1.90;;;;;;;10.22;100.00;98601.22;6584133;21;20308;-81
2024/04/20 06:24:57;;;;;;;0.90;0.90;;;;;;;10.29;100.00;98615.25;6583555;21;20252;-82
2024/04/20 06:27:25;;;;;;;1.60;0.60;;;;;;;10.17;100.00;98612.66;6584833;21;20306;-81
2024/04/20 06:29:53;;;;;;;0.60;0.50;;;;;;;10.33;100.00;98622.56;6540464;21;20216;-81
2024/04/20 06:32:21;;;;;;;1.40;0.50;;;;;;;10.32;100.00;98625.47;6583885;21;20248;-82
2024/04/20 06:34:50;;;;;;;1.40;0.60;;;;;;;10.10;100.00;98636.84;6583836;21;20887;-81
2024/04/20 06:37:19;;;;;;;1.27;0.60;;;;;;;10.07;100.00;98637.34;6584043;21;20232;-82
2024/04/20 06:39:47;;;;;;;0.80;0.60;;;;;;;9.71;100.00;98627.81;6628054;21;20260;-81
2024/04/20 06:42:15;;;;;;;0.83;0.70;;;;;;;9.52;100.00;98630.91;6629961;21;20279;-81
2024/04/20 06:44:49;;;;;;;0.67;0.43;;;;;;;9.37;100.00;98628.75;6627942;21;20302;-81
2024/04/20 06:47:17;;;;;;;0.60;0.60;;;;;;;9.20;100.00;98642.00;6584897;21;20220;-82
2024/04/20 06:49:44;;;;;;;0.50;0.40;;;;;;;8.81;100.00;98637.41;6629648;21;20216;-83
2024/04/20 06:52:13;;;;;;;1.67;0.73;;;;;;;8.86;100.00;98628.69;6541584;21;20232;-81
2024/04/20 06:54:43;;;;;;;0.60;0.60;;;;;;;9.05;100.00;98628.31;6585038;21;20223;-81
2024/04/20 06:57:11;;;;;;;2.60;2.10;;;;;;;9.14;100.00;98636.81;6584987;21;20252;-82
2024/04/20 06:59:39;;;;;;;1.37;0.80;;;;;;;9.55;100.00;98628.59;6583779;21;20331;-80
2024/04/20 07:02:07;;;;;;;2.20;2.10;;;;;;;9.83;100.00;98632.31;6540645;21;20235;-82
2024/04/20 07:04:35;;;;;;;2.30;1.83;;;;;;;10.04;100.00;98631.63;6584265;21;20272;-81
2024/04/20 07:07:03;;;;;;;1.27;1.13;;;;;;;10.27;100.00;98644.94;6583297;21;20240;-80
2024/04/20 07:09:31;;;;;;;0.40;0.40;;;;;;;10.14;100.00;98640.66;6622660;21;20219;-81
2024/04/20 07:11:59;;;;;;;0.50;0.40;;;;;;;10.17;100.00;98641.28;6581143;21;20232;-81
2024/04/20 07:14:27;;;;;;;0.40;0.37;;;;;;;10.45;100.00;98641.25;6583294;21;20261;-82
2024/04/20 07:16:55;;;;;;;0.63;0.40;;;;;;;10.48;100.00;98641.56;6541185;21;20566;-80
2024/04/20 07:19:23;;;;;;;1.13;0.60;;;;;;;10.30;100.00;98646.34;6627689;21;20224;-81
2024/04/20 07:21:51;;;;;;;1.13;0.43;;;;;;;10.27;100.00;98647.59;6627996;21;20248;-81
2024/04/20 07:24:19;;;;;;;0.50;0.50;;;;;;;9.93;100.00;98654.75;6584113;21;20228;-79
2024/04/20 07:26:49;;;;;;;0.30;0.30;;;;;;;10.19;100.00;98650.69;6627129;21;20228;-81
2024/04/20 07:29:17;;;;;;;0.63;0.50;;;;;;;10.45;100.00;98647.38;6540008;21;20227;-80
2024/04/20 07:31:48;;;;;;;0.30;0.30;;;;;;;10.58;100.00;98648.97;6583105;21;20521;-81
2024/04/20 07:34:29;;;;;;;0.33;0.30;;;;;;;10.71;100.00;98648.63;6582657;21;20280;-81
2024/04/20 07:36:57;;;;;;;0.43;0.37;;;;;;;11.12;100.00;98647.34;6583622;21;20325;-80
2024/04/20 07:39:26;;;;;;;0.60;0.50;;;;;;;10.67;100.00;98652.84;6582521;21;20228;-79
2024/04/20 07:41:54;;;;;;;0.47;0.30;;;;;;;10.83;100.00;98653.88;6539378;21;20247;-80
2024/04/20 07:44:22;;;;;;;0.70;0.70;;;;;;;11.29;100.00;98648.13;6581857;21;20300;-80
2024/04/20 07:46:58;;;;;;;0.37;0.23;;;;;;;11.40;100.00;98652.56;6582146;21;20235;-79
2024/04/20 07:49:35;;;;;;;0.80;0.70;;;;;;;11.57;100.00;98657.88;6586637;21;20224;-81
2024/04/20 07:52:04;;;;;;;0.53;0.30;;;;;;;11.97;100.00;98671.00;6582204;21;20228;-83
2024/04/20 07:54:32;;;;;;;0.40;0.40;;;;;;;11.77;100.00;98668.09;6626724;21;20271;-80
2024/04/20 07:56:59;;;;;;;0.83;0.70;;;;;;;11.90;100.00;98660.47;6540715;21;20236;-80
2024/04/20 07:59:28;;;;;;;0.50;0.40;;;;;;;12.18;100.00;98666.66;6626444;21;20231;-82
2024/04/20 08:01:56;;;;;;;0.60;0.40;;;;;;;12.33;100.00;98669.50;6581949;21;20232;-80
2024/04/20 08:04:25;;;;;;;0.37;0.37;;;;;;;12.16;100.00;98672.28;6580496;21;20267;-79
2024/04/20 08:06:54;;;;;;;0.70;0.70;;;;;;;12.44;100.00;98675.78;6625431;21;20224;-81
2024/04/20 08:09:25;;;;;;;1.50;1.40;;;;;;;12.33;100.00;98683.75;6583391;21;20270;-81
2024/04/20 08:11:54;;;;;;;0.97;0.43;;;;;;;12.44;100.00;98686.53;6582217;21;20302;-81
2024/04/20 08:14:21;;;;;;;0.77;0.30;;;;;;;12.11;100.00;98693.72;6539735;21;20228;-80
2024/04/20 08:16:49;;;;;;;0.40;0.40;;;;;;;12.53;100.00;98695.75;6582852;21;20232;-81
2024/04/20 08:19:17;;;;;;;0.30;0.30;;;;;;;12.53;100.00;98698.44;6583183;21;20343;-80
2024/04/20 08:21:45;;;;;;;0.80;0.70;;;;;;;12.92;100.00;98697.19;6583685;21;20244;-80
2024/04/20 08:24:14;;;;;;;0.20;0.20;;;;;;;13.03;100.00;98698.88;6583238;21;20276;-81
2024/04/20 08:26:44;;;;;;;0.40;0.30;;;;;;;13.18;100.00;98688.25;6626659;21;20235;-80
2024/04/20 08:29:12;;;;;;;0.40;0.40;;;;;;;13.43;100.00;98698.38;6583852;21;20223;-79
2024/04/20 08:31:40;;;;;;;0.50;0.30;;;;;;;13.31;100.00;98716.56;6584042;21;20245;-80
2024/04/20 08:34:10;;;;;;;0.30;0.30;;;;;;;13.42;100.00;98710.19;6627632;21;20224;-81
2024/04/20 08:36:40;;;;;;;0.30;0.23;;;;;;;12.95;100.00;98718.16;6583758;21;20246;-79
2024/04/20 08:39:08;;;;;;;0.37;0.30;;;;;;;12.76;100.00;98708.84;6628111;21;20279;-79
2024/04/20 08:42:02;;;;;;;0.20;0.20;;;;;;;12.98;100.00;98703.38;6581447;21;20224;-82
2024/04/20 08:44:31;;;;;;;0.73;0.73;;;;;;;13.32;100.00;98712.81;6624070;21;20251;-79
2024/04/20 08:47:02;;;;;;;0.20;0.20;;;;;;;13.27;100.00;98711.97;6583454;21;20908;-79
2024/04/20 08:49:31;;;;;;;0.20;0.20;;;;;;;13.55;100.00;98714.28;6584033;21;20311;-81
2024/04/20 08:52:00;;;;;;;0.50;0.30;;;;;;;13.69;100.00;98707.38;6540710;21;20228;-79
2024/04/20 08:54:29;;;;;;;1.20;0.20;;;;;;;13.41;100.00;98715.81;6584617;21;20232;-78
2024/04/20 08:56:57;;;;;;;0.20;0.20;;;;;;;13.31;100.00;98705.00;6540230;21;20232;-81
2024/04/20 08:59:25;;;;;;;1.10;0.50;;;;;;;13.36;100.00;98721.16;6580899;21;20597;-82
2024/04/20 09:01:57;;;;;;;0.20;0.20;;;;;;;13.44;100.00;98720.69;6626290;21;20236;-80
2024/04/20 09:04:26;;;;;;;0.47;0.40;;;;;;;13.71;100.00;98723.28;6626623;21;20232;-80
2024/04/20 09:06:53;;;;;;;0.57;0.30;;;;;;;14.00;100.00;98719.88;6584304;21;20274;-80
2024/04/20 09:09:22;;;;;;;1.40;0.30;;;;;;;13.26;100.00;98724.59;6627108;21;20333;-80
2024/04/20 09:11:50;;;;;;;0.20;0.20;;;;;;;13.18;100.00;98720.53;6540639;21;20236;-80
2024/04/20 09:14:33;;;;;;;0.30;0.30;;;;;;;13.93;100.00;98723.91;6632742;21;20262;-80
2024/04/20 09:17:03;;;;;;;0.30;0.30;;;;;;;13.50;100.00;98730.41;6583613;21;20282;-81
2024/04/20 09:19:31;;;;;;;0.20;0.20;;;;;;;13.99;100.00;98726.38;6540012;21;20251;-81
2024/04/20 09:22:12;;;;;;;0.30;0.30;;;;;;;14.11;100.00;98726.94;6582488;21;20241;-81
2024/04/20 09:24:45;;;;;;;0.30;0.30;;;;;;;14.08;100.00;98742.81;6627787;21;20263;-80
2024/04/20 09:27:18;;;;;;;0.47;0.30;;;;;;;13.88;100.00;98748.94;6543251;21;20748;-83
2024/04/20 09:29:46;;;;;;;0.30;0.30;;;;;;;14.21;100.00;98750.41;6582555;21;20264;-81
2024/04/20 09:32:14;;;;;;;0.20;0.20;;;;;;;14.25;96.78;98742.59;6582282;21;20284;-79
2024/04/20 09:34:45;;;;;;;0.20;0.20;;;;;;;14.09;96.55;98745.25;6669764;21;20234;-81
2024/04/20 09:37:12;;;;;;;0.30;0.30;;;;;;;14.33;97.72;98744.78;6541113;21;20236;-81
2024/04/20 09:39:43;;;;;;;0.20;0.20;;;;;;;14.56;94.82;98741.63;6627558;21;20232;-80
2024/04/20 09:42:11;;;;;;;0.30;0.20;;;;;;;14.33;94.42;98740.22;6541864;21;20236;-80
2024/04/20 09:44:40;;;;;;;0.30;0.30;;;;;;;14.57;95.65;98751.34;6582426;21;20228;-80
2024/04/20 09:47:11;;;;;;;2.47;1.13;;;;;;;14.96;93.13;98744.41;6579252;21;20229;-79
2024/04/20 09:49:47;;;;;;;1.20;0.50;;;;;;;14.71;95.02;98741.66;6585826;21;20260;-79
2024/04/20 09:52:20;;;;;;;0.63;0.30;;;;;;;14.99;93.78;98748.44;6628684;21;20334;-80
2024/04/20 09:55:06;;;;;;;1.03;0.40;;;;;;;14.79;91.51;98746.53;6584346;21;20269;-78
2024/04/20 09:57:38;;;;;;;0.20;0.20;;;;;;;14.73;90.20;98733.31;6627937;21;20230;-79
2024/04/20 10:00:10;;;;;;;0.20;0.20;;;;;;;14.83;91.84;98744.13;6628518;21;20399;-81
2024/04/20 10:02:42;;;;;;;0.20;0.20;;;;;;;14.77;88.51;98737.91;6585787;21;20225;-79
2024/04/20 10:05:11;;;;;;;0.30;0.30;;;;;;;14.77;91.50;98735.22;6628190;21;20463;-80
2024/04/20 10:07:39;;;;;;;0.20;0.20;;;;;;;14.85;89.31;98731.97;6628131;21;20283;-79
2024/04/20 10:10:06;;;;;;;0.30;0.20;;;;;;;15.10;88.24;98733.06;6541639;21;20261;-80
2024/04/20 10:12:36;;;;;;;0.30;0.20;;;;;;;14.88;89.38;98736.03;6541418;21;20225;-80
2024/04/20 10:15:05;;;;;;;0.33;0.20;;;;;;;15.20;89.90;98736.56;6628306;21;20235;-82
2024/04/20 10:17:33;;;;;;;0.50;0.20;;;;;;;15.04;89.44;98742.22;6584529;21;20219;-81
2024/04/20 10:20:00;;;;;;;0.37;0.17;;;;;;;14.74;90.67;98734.94;6541611;21;20234;-81
2024/04/20 10:22:29;;;;;;;0.40;0.40;;;;;;;14.30;89.50;98735.34;6584716;21;20255;-80
2024/04/20 10:25:02;;;;;;;1.03;0.73;;;;;;;14.77;89.33;98740.59;6582122;21;20221;-81
2024/04/20 10:27:32;;;;;;;0.27;0.27;;;;;;;14.28;90.50;98740.19;6585210;21;20283;-81
2024/04/20 10:30:21;;;;;;;0.20;0.20;;;;;;;14.51;89.98;98737.03;6585102;21;20273;-80
2024/04/20 10:33:03;;;;;;;0.23;0.20;;;;;;;14.50;91.91;98727.38;6542698;21;20331;-80
2024/04/20 10:35:32;;;;;;;0.20;0.20;;;;;;;14.51;92.93;98738.97;6627909;21;20222;-81
2024/04/20 10:38:03;;;;;;;0.93;0.30;;;;;;;14.67;91.64;98740.59;6585178;21;20220;-82
2024/04/20 10:40:36;;;;;;;0.70;0.30;;;;;;;14.85;90.35;98733.84;6584956;21;20323;-82
2024/04/20 10:43:20;;;;;;;0.20;0.20;;;;;;;15.24;87.31;98734.13;6628171;21;20228;-81
2024/04/20 10:46:04;;;;;;;0.20;0.20;;;;;;;14.63;87.58;98731.41;6584214;21;20222;-81
2024/04/20 10:48:41;;;;;;;0.37;0.13;;;;;;;14.89;88.94;98737.63;6630017;21;20226;-80
2024/04/20 10:51:16;;;;;;;0.37;0.30;;;;;;;14.98;87.04;98739.53;6628305;21;20256;-81
2024/04/20 10:53:45;;;;;;;0.20;0.20;;;;;;;15.01;88.18;98738.19;6585473;21;20265;-80
2024/04/20 10:56:13;;;;;;;0.40;0.30;;;;;;;14.78;87.77;98750.31;6584366;21;20265;-81
2024/04/20 10:58:42;;;;;;;0.10;0.10;;;;;;;15.03;88.09;98749.50;6627671;21;20800;-81
2024/04/20 11:01:10;;;;;;;0.20;0.20;;;;;;;15.08;85.91;98749.50;6584262;21;20674;-82
2024/04/20 11:03:38;;;;;;;0.20;0.20;;;;;;;15.54;86.25;98750.31;6584157;21;20231;-80
2024/04/20 11:06:07;;;;;;;0.27;0.20;;;;;;;15.51;83.48;98753.56;6584343;21;20266;-80
2024/04/20 11:08:39;;;;;;;0.30;0.10;;;;;;;14.87;82.04;98748.72;6540749;21;20235;-81
2024/04/20 11:11:08;;;;;;;0.30;0.20;;;;;;;15.50;85.70;98762.72;6583467;21;20268;-82
2024/04/20 11:13:37;;;;;;;0.20;0.20;;;;;;;15.21;86.54;98769.78;6541122;21;20308;-80
2024/04/20 11:16:07;;;;;;;0.20;0.20;;;;;;;14.65;86.26;98779.69;6628512;21;20268;-80
2024/04/20 11:18:35;;;;;;;0.77;0.20;;;;;;;14.57;87.56;98780.19;6584805;21;20254;-82
2024/04/20 11:21:07;;;;;;;0.53;0.30;;;;;;;14.78;85.54;98790.78;6584785;21;20239;-79
2024/04/20 11:23:35;;;;;;;0.13;0.13;;;;;;;14.91;86.41;98787.53;6540155;21;20256;-79
2024/04/20 11:26:04;;;;;;;0.20;0.20;;;;;;;14.61;88.37;98790.16;6583279;21;20257;-80
2024/04/20 11:28:34;;;;;;;0.20;0.20;;;;;;;14.48;85.29;98782.59;6542369;21;20322;-80
2024/04/20 11:31:02;;;;;;;0.10;0.10;;;;;;;14.02;87.01;98808.50;6582647;21;20234;-80
2024/04/20 11:33:30;;;;;;;0.60;0.30;;;;;;;14.13;86.63;98801.28;6584489;21;20229;-82
2024/04/20 11:35:59;;;;;;;0.23;0.20;;;;;;;13.62;87.57;98814.47;6627715;21;20272;-81
2024/04/20 11:38:27;;;;;;;0.20;0.20;;;;;;;13.60;88.09;98809.34;6626621;21;20262;-80
2024/04/20 11:40:55;;;;;;;0.57;0.30;;;;;;;13.10;88.45;98811.59;6540914;21;20312;-81